Terminal Aerodrome Forecast
Issued by NWS Cleveland, OH

Home | Current Version | Previous Version | Graphics & Text | Print | Product List | Glossary On
Versions: 1 2 3 4 5 6 7 8 9 10 11 12 13 14 15 16 17 18 19
000
FTUS41 KCLE 261300 AAA
TAFYNG
TAF AMD
KYNG 261340Z 2614/2712 01010KT 1 1/2SM -SN OVC020
     FM261700 36008KT 1SM -SN BR OVC010
     FM262200 36008KT 3SM -SN BR OVC015
     FM270100 33005KT P6SM OVC025=

USA.gov is the U.S. government's official web portal to all federal, state and local government web resources and services.